Terminal Aerodrome Forecast
Issued by NWS Amarillo, TX

Home | Current Version | Previous Version | Text Only | Print | Product List | Glossary On
Versions: 1 2 3 4 5 6 7 8 9 10 11 12 13 14 15 16 17
287
FTUS44 KAMA 291120
TAFAMA
TAF
KAMA 291120Z 2912/3012 10018KT 5SM -TSRA BR SCT005 OVC010CB
      TEMPO 2912/2916 1SM +TSRA BR OVC005CB
     FM292000 23018KT P6SM SCT025 BKN200
     FM300100 30017G27KT P6SM SCT200=

USA.gov is the U.S. government's official web portal to all federal, state and local government web resources and services.